VTSP/HKT METAR and TAF weather

Enter ICAO airport designator
Station Type Date Time Source
VTSP METAR 2024/02/26 18:30 UTC NOAA

VTSP 261830Z 09005KT 9999 FEW020 27/22 Q1010 NOSIG


Station Type Date Time Source
VTSP Decoded METAR 2024/02/26 18:30 UTC NOAA

Phuket Airport, Thailand (VTSP) 08-07N 098-19E 10M
Feb 26, 2024 - 01:30 PM EST / 2024.02.26 1830 UTC
Wind: from the E (090 degrees) at 6 MPH (5 KT):0
Visibility: greater than 7 mile(s):0
Sky conditions: mostly clear
Temperature: 80 F (27 C)
Dew Point: 71 F (22 C)
Relative Humidity: 74%
Pressure (altimeter): 29.83 in. Hg (1010 hPa)
ob: VTSP 261830Z 09005KT 9999 FEW020 27/22 Q1010 NOSIG
cycle: 18

Station Type Date Time Source
VTSP TAF 2024/02/26 18:36 UTC NOAA